NRL942 CYMX-CYVO
Flight info
| Callsign | NRL942 |
|---|---|
| Flight time | 0h 47m |
| Altitude | 32000 |
| Route | KESKA DCT BIPKO DCT IPSAK DCT OMEGI DCT RADEN DCT YVO |
| Aircraft | B732/M-SDFGHRWY/S |
Departure
| Time | 2026-04-12 10:34 |
|---|---|
| Airport | Montreal Mirabel International Airport (CYMX) |
Arrival
| Time | 2026-04-12 11:22 |
|---|---|
| Airport | Val-d'Or Airport (CYVO) |
| Time | Latitude | Longitude | Altitude | Speed | Heading |
|---|---|---|---|---|---|
| 2026-04-12 09:51 | 45.67742 | -74.04365 | 271 ft | 0 kts | 140° |
| 2026-04-12 10:19 | 45.67742 | -74.04364 | 271 ft | 0 kts | 140° |
| 2026-04-12 10:20 | 45.67716 | -74.04333 | 271 ft | 9 kts | 140° |
| 2026-04-12 10:20 | 45.67637 | -74.04308 | 271 ft | 14 kts | 191° |
| 2026-04-12 10:20 | 45.67538 | -74.04330 | 271 ft | 15 kts | 192° |
| 2026-04-12 10:20 | 45.67435 | -74.04351 | 271 ft | 15 kts | 189° |
| 2026-04-12 10:21 | 45.67326 | -74.04376 | 271 ft | 16 kts | 188° |
| 2026-04-12 10:21 | 45.67209 | -74.04401 | 271 ft | 15 kts | 188° |
| 2026-04-12 10:21 | 45.67145 | -74.04415 | 271 ft | 10 kts | 189° |
| 2026-04-12 10:21 | 45.67070 | -74.04421 | 271 ft | 6 kts | 153° |
| 2026-04-12 10:22 | 45.67059 | -74.04367 | 271 ft | 7 kts | 99° |
| 2026-04-12 10:22 | 45.67049 | -74.04263 | 271 ft | 14 kts | 97° |
| 2026-04-12 10:22 | 45.67043 | -74.04097 | 271 ft | 18 kts | 78° |
| 2026-04-12 10:22 | 45.67084 | -74.03926 | 273 ft | 18 kts | 70° |
| 2026-04-12 10:23 | 45.67126 | -74.03758 | 275 ft | 18 kts | 70° |
| 2026-04-12 10:23 | 45.67171 | -74.03580 | 275 ft | 19 kts | 70° |
| 2026-04-12 10:23 | 45.67218 | -74.03392 | 275 ft | 20 kts | 70° |
| 2026-04-12 10:23 | 45.67268 | -74.03191 | 272 ft | 14 kts | 70° |
| 2026-04-12 10:24 | 45.67302 | -74.03061 | 270 ft | 14 kts | 71° |
| 2026-04-12 10:24 | 45.67337 | -74.02924 | 268 ft | 15 kts | 71° |
| 2026-04-12 10:24 | 45.67382 | -74.02747 | 268 ft | 20 kts | 69° |
| 2026-04-12 10:24 | 45.67422 | -74.02586 | 268 ft | 10 kts | 68° |
| 2026-04-12 10:25 | 45.67420 | -74.02533 | 268 ft | 4 kts | 136° |
| 2026-04-12 10:25 | 45.67396 | -74.02516 | 268 ft | 3 kts | 160° |
| 2026-04-12 10:25 | 45.67360 | -74.02497 | 268 ft | 8 kts | 158° |
| 2026-04-12 10:25 | 45.67283 | -74.02451 | 268 ft | 12 kts | 156° |
| 2026-04-12 10:26 | 45.67248 | -74.02430 | 268 ft | 7 kts | 152° |
| 2026-04-12 10:26 | 45.67216 | -74.02393 | 268 ft | 0 kts | 134° |
| 2026-04-12 10:30 | 45.67213 | -74.02389 | 268 ft | 1 kts | 133° |
| 2026-04-12 10:30 | 45.67194 | -74.02359 | 268 ft | 5 kts | 133° |
| 2026-04-12 10:30 | 45.67163 | -74.02312 | 268 ft | 7 kts | 133° |
| 2026-04-12 10:31 | 45.67125 | -74.02256 | 268 ft | 8 kts | 133° |
| 2026-04-12 10:31 | 45.67083 | -74.02190 | 268 ft | 9 kts | 124° |
| 2026-04-12 10:31 | 45.67095 | -74.02107 | 268 ft | 6 kts | 37° |
| 2026-04-12 10:31 | 45.67099 | -74.02102 | 268 ft | 0 kts | 42° |
| 2026-04-12 10:33 | 45.67220 | -74.01923 | 268 ft | 65 kts | 46° |
| 2026-04-12 10:34 | 45.67759 | -74.01160 | 295 ft | 148 kts | 45° |
| 2026-04-12 10:34 | 45.68568 | -74.00027 | 930 ft | 176 kts | 43° |
| 2026-04-12 10:34 | 45.69472 | -73.98801 | 1979 ft | 187 kts | 41° |
| 2026-04-12 10:34 | 45.70394 | -73.97574 | 3195 ft | 186 kts | 39° |
| 2026-04-12 10:35 | 45.71363 | -73.96292 | 4152 ft | 200 kts | 38° |
| 2026-04-12 10:35 | 45.71708 | -73.95838 | 4492 ft | 204 kts | 38° |
| 2026-04-12 10:35 | 45.73267 | -73.93182 | 6199 ft | 228 kts | 69° |
| 2026-04-12 10:35 | 45.73416 | -73.90794 | 6711 ft | 266 kts | 99° |
| 2026-04-12 10:36 | 45.72984 | -73.88074 | 7424 ft | 292 kts | 106° |
| 2026-04-12 10:36 | 45.72126 | -73.85506 | 8645 ft | 288 kts | 133° |
| 2026-04-12 10:36 | 45.70893 | -73.83314 | 9910 ft | 289 kts | 136° |
| 2026-04-12 10:36 | 45.69595 | -73.81020 | 10862 ft | 302 kts | 136° |
| 2026-04-12 10:37 | 45.68309 | -73.78718 | 12068 ft | 303 kts | 135° |
| 2026-04-12 10:37 | 45.67013 | -73.76374 | 13293 ft | 302 kts | 136° |
| 2026-04-12 10:37 | 45.65608 | -73.74185 | 14268 ft | 298 kts | 150° |
| 2026-04-12 10:37 | 45.63786 | -73.73029 | 15238 ft | 288 kts | 173° |
| 2026-04-12 10:38 | 45.61834 | -73.73143 | 16223 ft | 285 kts | 196° |
| 2026-04-12 10:38 | 45.60106 | -73.74508 | 17169 ft | 291 kts | 218° |
| 2026-04-12 10:38 | 45.58911 | -73.76884 | 17968 ft | 309 kts | 239° |
| 2026-04-12 10:38 | 45.58462 | -73.79985 | 18748 ft | 334 kts | 260° |
| 2026-04-12 10:39 | 45.58897 | -73.83337 | 19519 ft | 360 kts | 281° |
| 2026-04-12 10:39 | 45.59814 | -73.86713 | 20270 ft | 358 kts | 274° |
| 2026-04-12 10:39 | 45.60208 | -73.90170 | 20974 ft | 352 kts | 265° |
| 2026-04-12 10:39 | 45.60406 | -73.93645 | 21688 ft | 354 kts | 263° |
| 2026-04-12 10:40 | 45.60580 | -73.97122 | 22353 ft | 358 kts | 263° |
| 2026-04-12 10:40 | 45.60757 | -74.00691 | 22998 ft | 362 kts | 263° |
| 2026-04-12 10:40 | 45.60936 | -74.04278 | 23628 ft | 365 kts | 263° |
| 2026-04-12 10:40 | 45.61114 | -74.07893 | 24236 ft | 369 kts | 263° |
| 2026-04-12 10:41 | 45.61294 | -74.11578 | 24799 ft | 373 kts | 263° |
| 2026-04-12 10:41 | 45.61657 | -74.15296 | 25335 ft | 393 kts | 275° |
| 2026-04-12 10:41 | 45.62870 | -74.18947 | 25840 ft | 422 kts | 293° |
| 2026-04-12 10:41 | 45.64890 | -74.22170 | 26311 ft | 443 kts | 306° |
| 2026-04-12 10:42 | 45.66906 | -74.25440 | 26791 ft | 436 kts | 297° |
| 2026-04-12 10:42 | 45.68697 | -74.28896 | 27262 ft | 436 kts | 295° |
| 2026-04-12 10:42 | 45.70436 | -74.32458 | 27683 ft | 432 kts | 289° |
| 2026-04-12 10:42 | 45.71901 | -74.36226 | 28124 ft | 430 kts | 285° |
| 2026-04-12 10:43 | 45.72973 | -74.44167 | 28965 ft | 398 kts | 261° |
| 2026-04-12 10:43 | 45.73188 | -74.48174 | 29349 ft | 406 kts | 263° |
| 2026-04-12 10:43 | 45.73461 | -74.52216 | 29702 ft | 410 kts | 263° |
| 2026-04-12 10:44 | 45.73742 | -74.56248 | 30124 ft | 412 kts | 263° |
| 2026-04-12 10:44 | 45.74025 | -74.60362 | 30511 ft | 414 kts | 263° |
| 2026-04-12 10:44 | 45.74308 | -74.64498 | 30852 ft | 417 kts | 263° |
| 2026-04-12 10:44 | 45.74590 | -74.68647 | 31205 ft | 419 kts | 262° |
| 2026-04-12 10:45 | 45.74871 | -74.72787 | 31526 ft | 422 kts | 262° |
| 2026-04-12 10:45 | 45.75156 | -74.77032 | 31884 ft | 424 kts | 262° |
| 2026-04-12 10:45 | 45.75438 | -74.81222 | 32245 ft | 425 kts | 262° |
| 2026-04-12 10:45 | 45.75864 | -74.85529 | 32475 ft | 442 kts | 269° |
| 2026-04-12 10:46 | 45.77083 | -74.94286 | 32504 ft | 459 kts | 269° |
| 2026-04-12 10:46 | 45.78450 | -75.03326 | 32469 ft | 458 kts | 269° |
| 2026-04-12 10:47 | 45.79794 | -75.12097 | 32454 ft | 443 kts | 268° |
| 2026-04-12 10:47 | 45.81091 | -75.20637 | 32450 ft | 429 kts | 268° |
| 2026-04-12 10:48 | 45.82339 | -75.28935 | 32460 ft | 430 kts | 268° |
| 2026-04-12 10:48 | 45.83612 | -75.37437 | 32459 ft | 438 kts | 268° |
| 2026-04-12 10:49 | 45.84900 | -75.46027 | 32455 ft | 438 kts | 268° |
| 2026-04-12 10:49 | 45.86169 | -75.54539 | 32453 ft | 435 kts | 268° |
| 2026-04-12 10:50 | 45.87415 | -75.62956 | 32455 ft | 432 kts | 268° |
| 2026-04-12 10:50 | 45.88660 | -75.71433 | 32458 ft | 434 kts | 267° |
| 2026-04-12 10:51 | 45.89908 | -75.79951 | 32459 ft | 433 kts | 268° |
| 2026-04-12 10:51 | 45.91142 | -75.88429 | 32459 ft | 432 kts | 267° |
| 2026-04-12 10:52 | 45.92572 | -75.96864 | 32440 ft | 453 kts | 279° |
| 2026-04-12 10:52 | 45.94184 | -76.00861 | 32466 ft | 478 kts | 293° |
| 2026-04-12 10:52 | 45.96579 | -76.04410 | 32461 ft | 507 kts | 310° |
| 2026-04-12 10:53 | 45.99605 | -76.07140 | 32477 ft | 525 kts | 323° |
| 2026-04-12 10:53 | 46.02885 | -76.09502 | 32466 ft | 530 kts | 325° |
| 2026-04-12 10:53 | 46.09506 | -76.14158 | 32464 ft | 531 kts | 325° |
| 2026-04-12 10:54 | 46.16113 | -76.18837 | 32436 ft | 528 kts | 325° |
| 2026-04-12 10:54 | 46.22662 | -76.23495 | 32438 ft | 526 kts | 325° |
| 2026-04-12 10:55 | 46.29219 | -76.28172 | 32442 ft | 528 kts | 325° |
| 2026-04-12 10:55 | 46.35777 | -76.32861 | 32442 ft | 529 kts | 325° |
| 2026-04-12 10:56 | 46.42382 | -76.37596 | 32445 ft | 529 kts | 325° |
| 2026-04-12 10:56 | 46.49032 | -76.42378 | 32446 ft | 531 kts | 325° |
| 2026-04-12 10:57 | 46.55621 | -76.47124 | 32449 ft | 531 kts | 325° |
| 2026-04-12 10:57 | 46.62246 | -76.51913 | 32446 ft | 529 kts | 325° |
| 2026-04-12 10:58 | 46.68824 | -76.56681 | 32451 ft | 529 kts | 325° |
| 2026-04-12 10:58 | 46.75461 | -76.61504 | 32425 ft | 531 kts | 325° |
| 2026-04-12 10:59 | 46.82077 | -76.66325 | 32381 ft | 530 kts | 324° |
| 2026-04-12 10:59 | 46.88694 | -76.71158 | 32352 ft | 527 kts | 324° |
| 2026-04-12 11:00 | 46.95226 | -76.75950 | 32351 ft | 528 kts | 324° |
| 2026-04-12 11:00 | 47.01841 | -76.80814 | 32356 ft | 534 kts | 325° |
| 2026-04-12 11:01 | 47.08509 | -76.85729 | 32361 ft | 540 kts | 326° |
| 2026-04-12 11:01 | 47.15200 | -76.90666 | 32325 ft | 529 kts | 326° |
| 2026-04-12 11:02 | 47.21669 | -76.95459 | 32327 ft | 514 kts | 326° |
| 2026-04-12 11:02 | 47.28018 | -77.00181 | 32335 ft | 511 kts | 327° |
| 2026-04-12 11:03 | 47.34305 | -77.04867 | 32336 ft | 510 kts | 327° |
| 2026-04-12 11:03 | 47.40619 | -77.09579 | 32324 ft | 508 kts | 327° |
| 2026-04-12 11:04 | 47.46892 | -77.14272 | 32297 ft | 493 kts | 327° |
| 2026-04-12 11:04 | 47.49841 | -77.16476 | 32228 ft | 467 kts | 327° |
| 2026-04-12 11:04 | 47.52719 | -77.18639 | 31118 ft | 475 kts | 327° |
| 2026-04-12 11:05 | 47.55711 | -77.20915 | 29747 ft | 492 kts | 327° |
| 2026-04-12 11:05 | 47.58709 | -77.23168 | 28989 ft | 481 kts | 327° |
| 2026-04-12 11:05 | 47.61606 | -77.25346 | 28087 ft | 472 kts | 327° |
| 2026-04-12 11:05 | 47.64513 | -77.27545 | 27376 ft | 469 kts | 327° |
| 2026-04-12 11:06 | 47.67412 | -77.29734 | 26792 ft | 456 kts | 327° |
| 2026-04-12 11:06 | 47.70185 | -77.31833 | 25776 ft | 449 kts | 327° |
| 2026-04-12 11:06 | 47.72954 | -77.33935 | 24677 ft | 444 kts | 328° |
| 2026-04-12 11:06 | 47.75661 | -77.35991 | 23664 ft | 436 kts | 328° |
| 2026-04-12 11:07 | 47.78293 | -77.37975 | 22695 ft | 429 kts | 330° |
| 2026-04-12 11:07 | 47.81031 | -77.39700 | 21709 ft | 424 kts | 333° |
| 2026-04-12 11:07 | 47.83704 | -77.41326 | 20746 ft | 416 kts | 333° |
| 2026-04-12 11:07 | 47.86361 | -77.42947 | 19782 ft | 409 kts | 333° |
| 2026-04-12 11:08 | 47.88939 | -77.44524 | 18841 ft | 402 kts | 333° |
| 2026-04-12 11:08 | 47.91508 | -77.46103 | 17893 ft | 395 kts | 333° |
| 2026-04-12 11:08 | 47.94004 | -77.47643 | 16966 ft | 389 kts | 333° |
| 2026-04-12 11:08 | 47.96473 | -77.49173 | 16043 ft | 382 kts | 333° |
| 2026-04-12 11:09 | 47.98911 | -77.50690 | 15128 ft | 376 kts | 333° |
| 2026-04-12 11:09 | 48.01295 | -77.52178 | 14227 ft | 370 kts | 333° |
| 2026-04-12 11:09 | 48.03639 | -77.53649 | 13335 ft | 364 kts | 333° |
| 2026-04-12 11:09 | 48.05935 | -77.55096 | 12457 ft | 358 kts | 333° |
| 2026-04-12 11:10 | 48.08170 | -77.56512 | 11599 ft | 352 kts | 333° |
| 2026-04-12 11:10 | 48.10392 | -77.57927 | 10770 ft | 345 kts | 334° |
| 2026-04-12 11:10 | 48.12583 | -77.59332 | 10051 ft | 334 kts | 333° |
| 2026-04-12 11:10 | 48.14616 | -77.60615 | 9975 ft | 305 kts | 338° |
| 2026-04-12 11:11 | 48.16609 | -77.61246 | 9974 ft | 281 kts | 349° |
| 2026-04-12 11:11 | 48.18479 | -77.61662 | 9973 ft | 258 kts | 349° |
| 2026-04-12 11:11 | 48.20205 | -77.62038 | 9474 ft | 262 kts | 349° |
| 2026-04-12 11:11 | 48.22070 | -77.62457 | 8740 ft | 272 kts | 349° |
| 2026-04-12 11:12 | 48.23918 | -77.62880 | 8251 ft | 270 kts | 349° |
| 2026-04-12 11:12 | 48.25611 | -77.63272 | 7851 ft | 266 kts | 349° |
| 2026-04-12 11:12 | 48.27408 | -77.63692 | 7411 ft | 263 kts | 349° |
| 2026-04-12 11:12 | 48.29209 | -77.64116 | 6959 ft | 260 kts | 349° |
| 2026-04-12 11:13 | 48.30968 | -77.64535 | 6517 ft | 257 kts | 349° |
| 2026-04-12 11:13 | 48.32727 | -77.64957 | 6073 ft | 254 kts | 349° |
| 2026-04-12 11:13 | 48.34470 | -77.65381 | 5636 ft | 251 kts | 347° |
| 2026-04-12 11:13 | 48.36024 | -77.66399 | 5178 ft | 243 kts | 316° |
| 2026-04-12 11:14 | 48.36968 | -77.68386 | 4719 ft | 231 kts | 284° |
| 2026-04-12 11:14 | 48.37060 | -77.70682 | 4251 ft | 220 kts | 252° |
| 2026-04-12 11:14 | 48.36329 | -77.72581 | 3770 ft | 212 kts | 219° |
| 2026-04-12 11:14 | 48.35008 | -77.73508 | 3391 ft | 214 kts | 191° |
| 2026-04-12 11:15 | 48.33536 | -77.73858 | 3229 ft | 211 kts | 192° |
| 2026-04-12 11:15 | 48.32153 | -77.74451 | 3163 ft | 203 kts | 197° |
| 2026-04-12 11:15 | 48.30847 | -77.75099 | 3131 ft | 193 kts | 202° |
| 2026-04-12 11:15 | 48.29700 | -77.76090 | 3022 ft | 189 kts | 215° |
| 2026-04-12 11:16 | 48.28674 | -77.77305 | 2903 ft | 185 kts | 217° |
| 2026-04-12 11:16 | 48.27678 | -77.78513 | 2922 ft | 188 kts | 217° |
| 2026-04-12 11:16 | 48.26649 | -77.79762 | 2919 ft | 194 kts | 217° |
| 2026-04-12 11:16 | 48.25557 | -77.81035 | 2914 ft | 199 kts | 211° |
| 2026-04-12 11:17 | 48.24297 | -77.81933 | 2917 ft | 202 kts | 198° |
| 2026-04-12 11:17 | 48.23008 | -77.82571 | 2896 ft | 191 kts | 197° |
| 2026-04-12 11:17 | 48.21786 | -77.83103 | 2881 ft | 177 kts | 184° |
| 2026-04-12 11:17 | 48.20638 | -77.82851 | 2911 ft | 158 kts | 167° |
| 2026-04-12 11:18 | 48.19593 | -77.82465 | 2901 ft | 154 kts | 168° |
| 2026-04-12 11:18 | 48.18538 | -77.82112 | 2909 ft | 154 kts | 169° |
| 2026-04-12 11:18 | 48.17487 | -77.81783 | 2917 ft | 159 kts | 170° |
| 2026-04-12 11:18 | 48.16368 | -77.81445 | 2923 ft | 167 kts | 170° |
| 2026-04-12 11:19 | 48.15214 | -77.81107 | 2794 ft | 169 kts | 170° |
| 2026-04-12 11:19 | 48.14109 | -77.80786 | 2613 ft | 153 kts | 170° |
| 2026-04-12 11:19 | 48.13136 | -77.80505 | 2434 ft | 136 kts | 171° |
| 2026-04-12 11:19 | 48.12226 | -77.80243 | 2231 ft | 131 kts | 171° |
| 2026-04-12 11:20 | 48.11358 | -77.79995 | 2048 ft | 125 kts | 171° |
| 2026-04-12 11:20 | 48.10528 | -77.79757 | 1881 ft | 121 kts | 171° |
| 2026-04-12 11:20 | 48.09715 | -77.79524 | 1719 ft | 116 kts | 170° |
| 2026-04-12 11:20 | 48.08936 | -77.79300 | 1571 ft | 112 kts | 170° |
| 2026-04-12 11:21 | 48.08178 | -77.79083 | 1429 ft | 111 kts | 171° |
| 2026-04-12 11:21 | 48.07399 | -77.78864 | 1270 ft | 117 kts | 170° |
| 2026-04-12 11:21 | 48.06607 | -77.78636 | 1114 ft | 111 kts | 171° |
| 2026-04-12 11:21 | 48.05984 | -77.78457 | 1098 ft | 62 kts | 170° |
| 2026-04-12 11:22 | 48.05710 | -77.78378 | 1096 ft | 27 kts | 169° |
| 2026-04-12 11:22 | 48.05527 | -77.78326 | 1092 ft | 19 kts | 168° |
| 2026-04-12 11:22 | 48.05418 | -77.78294 | 1091 ft | 9 kts | 171° |
| 2026-04-12 11:22 | 48.05346 | -77.78285 | 1091 ft | 10 kts | 197° |
| 2026-04-12 11:23 | 48.05315 | -77.78374 | 1092 ft | 10 kts | 259° |
| 2026-04-12 11:23 | 48.05302 | -77.78480 | 1093 ft | 10 kts | 259° |
| 2026-04-12 11:23 | 48.05299 | -77.78568 | 1095 ft | 5 kts | 305° |
| 2026-04-12 11:23 | 48.05322 | -77.78615 | 1096 ft | 5 kts | 302° |
| 2026-04-12 11:24 | 48.05339 | -77.78655 | 1097 ft | 4 kts | 301° |
| 2026-04-12 11:24 | 48.05345 | -77.78670 | 1097 ft | 0 kts | 302° |